KFYV/FYV METAR and TAF weather

Enter ICAO airport designator
Station Type Date Time Source
KFYV METAR 2022/11/30 15:53 UTC NOAA

KFYV 301553Z 35006KT 10SM CLR 02/M09 A3041 RMK AO2 SLP305 T00171094


Station Type Date Time Source
KFYV Decoded METAR 2022/11/30 15:53 UTC NOAA

FAYETTEVILLE DRAKE FIELD, AR, United States (KFYV) 36-00N 94-10W 379M
Nov 30, 2022 - 10:53 AM EST / 2022.11.30 1553 UTC
Wind: from the N (350 degrees) at 7 MPH (6 KT):0
Visibility: 10 mile(s):0
Sky conditions: clear
Temperature: 35.1 F (1.7 C)
Dew Point: 15.1 F (-9.4 C)
Relative Humidity: 43%
Pressure (altimeter): 30.41 in. Hg (1029 hPa)
ob: KFYV 301553Z 35006KT 10SM CLR 02/M09 A3041 RMK AO2 SLP305 T00171094
cycle: 16

Station Type Date Time Source
KFYV TAF 2022/11/30 12:22 UTC NOAA

TAF KFYV 301120Z 3012/0112 VRB04KT P6SM SKC

Example: see airport list